Time;durP1;ratioP1;P1;durP2;ratioP2;P2;SDS_P1;SDS_P2;PMS_P1;PMS_P2;Temp;Humidity;BMP_temperature;BMP_pressure;BME280_temperature;BME280_humidity;BME280_pressure;Samples;Min_cycle;Max_cycle;Signal;HPM_P1;HPM_P2
2023/10/24 00:00:59;;;;;;;15.82;10.32;;;10.60;99.90;;;;;;5112723;28;20043;-75
2023/10/24 00:03:24;;;;;;;18.75;10.68;;;10.70;99.90;;;;;;5095591;28;20040;-75
2023/10/24 00:05:51;;;;;;;16.75;10.10;;;10.70;99.90;;;;;;5112533;28;20036;-75
2023/10/24 00:08:17;;;;;;;19.23;11.20;;;10.70;99.90;;;;;;5112720;28;20092;-75
2023/10/24 00:10:43;;;;;;;20.73;9.85;;;10.60;99.90;;;;;;5112269;28;20039;-75
2023/10/24 00:13:08;;;;;;;16.00;11.02;;;10.60;99.90;;;;;;5095486;28;20127;-75
2023/10/24 00:15:34;;;;;;;17.02;11.02;;;10.60;99.90;;;;;;5112285;28;20051;-75
2023/10/24 00:18:00;;;;;;;18.17;10.70;;;10.60;99.90;;;;;;5111792;28;20078;-75
2023/10/24 00:20:25;;;;;;;17.00;10.50;;;10.60;99.90;;;;;;5112585;28;20035;-74
2023/10/24 00:22:51;;;;;;;18.73;10.32;;;10.60;99.90;;;;;;5112102;28;20130;-75
2023/10/24 00:25:16;;;;;;;19.95;9.85;;;10.60;99.90;;;;;;5095233;28;20408;-75
2023/10/24 00:27:42;;;;;;;20.25;10.55;;;10.60;99.90;;;;;;5095377;28;20087;-75
2023/10/24 00:30:08;;;;;;;14.75;9.57;;;10.60;99.90;;;;;;5113424;28;20027;-75
2023/10/24 00:32:33;;;;;;;18.90;11.20;;;10.60;99.90;;;;;;5112027;28;20086;-75
2023/10/24 00:34:59;;;;;;;16.20;10.25;;;10.60;99.90;;;;;;5113287;28;20035;-75
2023/10/24 00:37:24;;;;;;;18.23;10.10;;;10.60;99.90;;;;;;5112987;28;20036;-75
2023/10/24 00:39:50;;;;;;;19.00;10.57;;;10.70;99.90;;;;;;5111789;28;20525;-74
2023/10/24 00:42:16;;;;;;;16.38;10.20;;;10.70;99.90;;;;;;5113116;28;20071;-75
2023/10/24 00:44:41;;;;;;;17.52;10.20;;;10.70;99.90;;;;;;5113062;28;20124;-75
2023/10/24 00:47:07;;;;;;;19.52;10.48;;;10.60;99.90;;;;;;5113012;28;20045;-75
2023/10/24 00:49:32;;;;;;;18.00;10.20;;;10.60;99.90;;;;;;5111887;28;20071;-75
2023/10/24 00:51:59;;;;;;;16.63;10.10;;;10.60;99.90;;;;;;5112723;28;20071;-75
2023/10/24 00:54:28;;;;;;;18.20;10.95;;;10.60;99.90;;;;;;5094180;28;20498;-75
2023/10/24 00:56:55;;;;;;;13.82;9.82;;;10.60;99.90;;;;;;5111567;28;20118;-75
2023/10/24 00:59:22;;;;;;;20.63;9.98;;;10.60;99.90;;;;;;5112951;28;20043;-75
2023/10/24 01:01:49;;;;;;;17.63;10.70;;;10.60;99.90;;;;;;5112536;28;20040;-75
2023/10/24 01:04:18;;;;;;;18.75;10.02;;;10.50;99.90;;;;;;5111384;28;20422;-75
2023/10/24 01:06:43;;;;;;;21.60;10.60;;;10.60;99.90;;;;;;5111285;28;20044;-75
2023/10/24 01:09:10;;;;;;;20.58;10.60;;;10.60;99.90;;;;;;5112866;28;20031;-75
2023/10/24 01:11:36;;;;;;;16.67;10.13;;;10.50;99.90;;;;;;5112343;27;20088;-75
2023/10/24 01:14:02;;;;;;;18.58;10.45;;;10.50;99.90;;;;;;5111322;28;20464;-75
2023/10/24 01:16:28;;;;;;;18.25;9.90;;;10.50;99.90;;;;;;5111201;28;20067;-75
2023/10/24 01:18:54;;;;;;;18.25;10.50;;;10.50;99.90;;;;;;5111456;28;20055;-75
2023/10/24 01:21:20;;;;;;;17.73;10.27;;;10.50;99.90;;;;;;5112459;28;20035;-75
2023/10/24 01:23:46;;;;;;;17.70;11.70;;;10.60;99.90;;;;;;5101428;28;20483;-76
2023/10/24 01:26:14;;;;;;;20.27;11.77;;;10.50;99.90;;;;;;5073832;28;20077;-75
2023/10/24 01:28:39;;;;;;;22.70;11.20;;;10.50;99.90;;;;;;5090868;28;20040;-75
2023/10/24 01:31:05;;;;;;;20.52;11.48;;;10.50;99.90;;;;;;5091829;28;20384;-75
2023/10/24 01:33:31;;;;;;;15.43;10.63;;;10.50;99.90;;;;;;5090700;28;20039;-75
2023/10/24 01:35:56;;;;;;;20.40;11.52;;;10.50;99.90;;;;;;5091630;28;20115;-75
2023/10/24 01:38:22;;;;;;;20.75;12.52;;;10.50;99.90;;;;;;5090633;28;20044;-75
2023/10/24 01:40:47;;;;;;;15.15;10.55;;;10.60;99.90;;;;;;5091740;28;20044;-76
2023/10/24 01:43:13;;;;;;;21.55;12.18;;;10.50;99.90;;;;;;5091841;28;20036;-75
2023/10/24 01:45:38;;;;;;;19.10;12.38;;;10.40;99.90;;;;;;5091765;28;20629;-75
2023/10/24 01:48:04;;;;;;;19.80;11.90;;;10.40;99.90;;;;;;5090704;28;20032;-75
2023/10/24 01:50:30;;;;;;;20.15;11.77;;;10.50;99.90;;;;;;5090709;28;20407;-75
2023/10/24 01:52:58;;;;;;;22.67;14.27;;;10.50;99.90;;;;;;5090332;28;20124;-75
2023/10/24 01:55:23;;;;;;;24.90;12.95;;;10.50;99.90;;;;;;5091913;28;20044;-76
2023/10/24 01:57:49;;;;;;;25.23;12.90;;;10.50;99.90;;;;;;5091704;28;20036;-75
2023/10/24 02:00:15;;;;;;;19.77;12.52;;;10.50;99.90;;;;;;5090404;28;20040;-75
2023/10/24 02:02:41;;;;;;;18.52;12.13;;;10.50;99.90;;;;;;5091370;28;20079;-75
2023/10/24 02:05:07;;;;;;;19.70;12.10;;;10.50;99.90;;;;;;5091919;28;20032;-75
2023/10/24 02:07:33;;;;;;;21.30;12.30;;;10.50;99.90;;;;;;5095905;28;20388;-75
2023/10/24 02:09:58;;;;;;;18.95;11.82;;;10.50;99.90;;;;;;5094271;28;20123;-75
2023/10/24 02:12:24;;;;;;;22.13;11.70;;;10.50;99.90;;;;;;5095644;28;20063;-75
2023/10/24 02:14:51;;;;;;;19.70;11.52;;;10.50;99.90;;;;;;5094345;28;20102;-76
2023/10/24 02:17:17;;;;;;;24.02;14.10;;;10.50;99.90;;;;;;5094141;28;20044;-75
2023/10/24 02:19:43;;;;;;;24.48;12.63;;;10.50;99.90;;;;;;5095429;28;20059;-75
2023/10/24 02:22:08;;;;;;;20.75;12.73;;;10.60;99.90;;;;;;5094194;28;20032;-75
2023/10/24 02:24:34;;;;;;;23.60;13.45;;;10.60;99.90;;;;;;5094349;28;20038;-75
2023/10/24 02:27:00;;;;;;;25.33;13.50;;;10.60;99.90;;;;;;5094312;28;20156;-75
2023/10/24 02:29:25;;;;;;;20.35;13.48;;;10.60;99.90;;;;;;5094014;28;20039;-76
2023/10/24 02:31:51;;;;;;;23.08;13.57;;;10.60;99.90;;;;;;5093968;28;20032;-75
2023/10/24 02:34:17;;;;;;;21.20;12.35;;;10.60;99.90;;;;;;5094513;28;20067;-75
2023/10/24 02:36:42;;;;;;;21.33;12.07;;;10.60;99.90;;;;;;5111806;22;20702;-74
2023/10/24 02:39:09;;;;;;;22.85;14.13;;;10.60;99.90;;;;;;5097171;28;20032;-74
2023/10/24 02:41:35;;;;;;;20.92;13.07;;;10.60;99.90;;;;;;5096397;28;20071;-74
2023/10/24 02:44:00;;;;;;;22.38;12.70;;;10.60;99.90;;;;;;5097105;28;20067;-75
2023/10/24 02:46:26;;;;;;;21.33;13.55;;;10.70;99.90;;;;;;5095635;28;20043;-75
2023/10/24 02:48:52;;;;;;;26.15;14.23;;;10.70;99.90;;;;;;5097020;28;20040;-74
2023/10/24 02:51:17;;;;;;;23.90;13.00;;;10.70;99.90;;;;;;5096729;28;20039;-74
2023/10/24 02:53:43;;;;;;;20.70;12.80;;;10.60;99.90;;;;;;5097329;28;20044;-74
2023/10/24 02:56:09;;;;;;;22.25;13.40;;;10.70;99.90;;;;;;5096969;28;20080;-75
2023/10/24 02:58:35;;;;;;;27.23;13.60;;;10.70;99.90;;;;;;5115217;28;20074;-74
2023/10/24 03:01:04;;;;;;;20.58;13.30;;;10.80;99.90;;;;;;5096643;28;20574;-75
2023/10/24 03:03:30;;;;;;;22.30;13.05;;;10.70;99.90;;;;;;5114818;28;20057;-75
2023/10/24 03:05:56;;;;;;;18.33;12.05;;;10.80;99.90;;;;;;5096809;28;20035;-75
2023/10/24 03:08:21;;;;;;;20.02;12.85;;;10.80;99.90;;;;;;5096795;28;20399;-75
2023/10/24 03:10:47;;;;;;;24.48;13.15;;;10.80;99.90;;;;;;5114972;28;20032;-75
2023/10/24 03:13:13;;;;;;;19.10;11.88;;;10.80;99.90;;;;;;5096609;28;20039;-75
2023/10/24 03:15:39;;;;;;;21.55;12.27;;;10.90;99.90;;;;;;5096999;28;20126;-75
2023/10/24 03:18:05;;;;;;;18.80;12.68;;;10.90;99.90;;;;;;5078793;28;20047;-75
2023/10/24 03:20:30;;;;;;;26.58;13.93;;;10.90;99.90;;;;;;5096631;28;20154;-75
2023/10/24 03:22:56;;;;;;;19.83;12.93;;;10.90;99.90;;;;;;5114558;28;20566;-75
2023/10/24 03:25:26;;;;;;;21.40;13.20;;;10.80;99.90;;;;;;5114682;28;20368;-75
2023/10/24 03:27:54;;;;;;;21.30;13.50;;;10.90;99.90;;;;;;5096373;28;20074;-75
2023/10/24 03:30:21;;;;;;;20.52;13.52;;;11.00;99.90;;;;;;5114914;28;20402;-75
2023/10/24 03:32:47;;;;;;;24.83;14.77;;;10.90;99.90;;;;;;5095955;28;20039;-76
2023/10/24 03:35:14;;;;;;;27.48;15.13;;;10.90;99.90;;;;;;5096353;28;20042;-75
2023/10/24 03:37:40;;;;;;;27.42;15.02;;;10.90;99.90;;;;;;5114290;28;20407;-75
2023/10/24 03:40:07;;;;;;;25.60;15.45;;;11.00;99.90;;;;;;5095982;28;20036;-75
2023/10/24 03:42:33;;;;;;;23.70;14.80;;;11.10;99.90;;;;;;5079266;28;20099;-75
2023/10/24 03:44:58;;;;;;;24.30;14.68;;;11.00;99.90;;;;;;5096200;28;20047;-75
2023/10/24 03:47:24;;;;;;;22.67;14.73;;;11.00;99.90;;;;;;5095966;28;20444;-75
2023/10/24 03:49:50;;;;;;;24.92;13.82;;;11.10;99.90;;;;;;5096122;28;20527;-76
2023/10/24 03:52:15;;;;;;;24.80;13.25;;;11.00;99.90;;;;;;5096089;28;20042;-75
2023/10/24 03:54:41;;;;;;;20.45;14.00;;;11.00;99.90;;;;;;5095917;28;20084;-76
2023/10/24 03:57:07;;;;;;;22.85;13.60;;;11.10;99.90;;;;;;5095712;28;20044;-76
2023/10/24 03:59:32;;;;;;;22.42;13.65;;;11.10;99.90;;;;;;5095673;28;20043;-76
2023/10/24 04:01:58;;;;;;;22.38;13.48;;;11.10;99.90;;;;;;5095428;28;20043;-76
2023/10/24 04:04:23;;;;;;;25.48;14.13;;;11.20;99.90;;;;;;5095606;28;20136;-76
2023/10/24 04:06:49;;;;;;;20.80;14.02;;;11.10;99.90;;;;;;5078646;28;20042;-75
2023/10/24 04:09:15;;;;;;;21.67;13.85;;;11.20;99.90;;;;;;5078695;28;20452;-75
2023/10/24 04:11:40;;;;;;;23.20;14.23;;;11.20;99.90;;;;;;5113559;28;20388;-75
2023/10/24 04:14:06;;;;;;;24.75;14.77;;;11.10;99.90;;;;;;5095401;28;20513;-75
2023/10/24 04:16:32;;;;;;;20.73;13.65;;;11.20;99.90;;;;;;5095189;28;20043;-75
2023/10/24 04:18:58;;;;;;;25.35;14.25;;;11.10;99.90;;;;;;5095268;28;20108;-75
2023/10/24 04:21:24;;;;;;;24.35;14.82;;;11.20;99.90;;;;;;5095269;28;20444;-75
2023/10/24 04:23:50;;;;;;;22.35;14.27;;;11.20;99.90;;;;;;5095252;28;20035;-75
2023/10/24 04:26:16;;;;;;;27.52;14.57;;;11.20;99.90;;;;;;5095022;28;20032;-75
2023/10/24 04:28:41;;;;;;;22.02;15.02;;;11.30;99.90;;;;;;5094383;28;20046;-76
2023/10/24 04:31:07;;;;;;;24.90;15.38;;;11.30;99.90;;;;;;5077522;28;20127;-75
2023/10/24 04:33:33;;;;;;;22.27;13.55;;;11.30;99.90;;;;;;5095008;28;20126;-75
2023/10/24 04:35:59;;;;;;;21.45;13.80;;;11.30;99.90;;;;;;5094966;28;20054;-75
2023/10/24 04:38:24;;;;;;;20.95;13.55;;;11.30;99.90;;;;;;5094736;28;20039;-75
2023/10/24 04:40:51;;;;;;;25.92;14.45;;;11.30;99.90;;;;;;5094666;28;20434;-75
2023/10/24 04:43:17;;;;;;;21.88;14.63;;;11.20;99.90;;;;;;5094701;28;20039;-75
2023/10/24 04:45:43;;;;;;;26.42;15.23;;;11.30;99.90;;;;;;5094814;28;20042;-76
2023/10/24 04:48:09;;;;;;;24.85;16.13;;;11.30;99.90;;;;;;5078022;28;20043;-77
2023/10/24 04:50:38;;;;;;;25.58;15.20;;;11.40;99.90;;;;;;5094701;28;20513;-76
2023/10/24 04:53:05;;;;;;;25.05;15.18;;;11.20;99.90;;;;;;5113080;28;20046;-76
2023/10/24 04:55:31;;;;;;;25.00;14.25;;;11.40;99.90;;;;;;5094909;28;20559;-76
2023/10/24 04:57:57;;;;;;;26.15;16.02;;;11.40;99.90;;;;;;5094377;28;20122;-76
2023/10/24 05:00:24;;;;;;;21.98;14.70;;;11.30;99.90;;;;;;5094700;28;20134;-76
2023/10/24 05:02:51;;;;;;;26.48;15.27;;;11.30;99.90;;;;;;5094533;28;20108;-76
2023/10/24 05:05:16;;;;;;;27.00;15.85;;;11.40;99.90;;;;;;5094510;28;20051;-76
2023/10/24 05:07:42;;;;;;;23.02;15.05;;;11.50;99.90;;;;;;5094034;28;20423;-76
2023/10/24 05:10:08;;;;;;;22.27;14.25;;;11.40;99.90;;;;;;5077711;28;20159;-76
2023/10/24 05:12:34;;;;;;;24.02;14.93;;;11.30;99.90;;;;;;5094097;28;20040;-76
2023/10/24 05:14:59;;;;;;;25.42;13.55;;;11.30;99.90;;;;;;5094278;28;20384;-76
2023/10/24 05:17:25;;;;;;;21.08;14.30;;;11.50;99.90;;;;;;5094465;28;20046;-76
2023/10/24 05:19:50;;;;;;;19.33;13.90;;;11.50;99.90;;;;;;5094106;28;20084;-76
2023/10/24 05:22:16;;;;;;;22.33;14.80;;;11.50;99.90;;;;;;5093918;28;20043;-76
2023/10/24 05:24:41;;;;;;;21.95;13.95;;;11.50;99.90;;;;;;5077612;28;20058;-76
2023/10/24 05:27:07;;;;;;;21.95;14.63;;;11.50;99.90;;;;;;5094239;28;20168;-76
2023/10/24 05:29:36;;;;;;;27.90;16.70;;;11.50;99.90;;;;;;5094011;28;20028;-76
2023/10/24 05:32:02;;;;;;;21.50;14.85;;;11.50;99.90;;;;;;5093855;28;20032;-76
2023/10/24 05:34:31;;;;;;;26.02;16.50;;;11.50;99.90;;;;;;5112330;28;20039;-77
2023/10/24 05:36:56;;;;;;;24.45;15.88;;;11.40;99.90;;;;;;5093851;28;20515;-76
2023/10/24 05:39:24;;;;;;;23.70;15.48;;;11.40;99.90;;;;;;5077079;28;20046;-76
2023/10/24 05:41:50;;;;;;;24.42;17.17;;;11.40;99.90;;;;;;5076541;28;20035;-76
2023/10/24 05:44:16;;;;;;;25.38;15.48;;;11.50;99.90;;;;;;5093682;28;20503;-76
2023/10/24 05:46:41;;;;;;;25.60;15.45;;;11.50;99.90;;;;;;5076921;28;20119;-76
2023/10/24 05:49:07;;;;;;;24.00;15.15;;;11.50;99.90;;;;;;5112173;28;20031;-76
2023/10/24 05:51:33;;;;;;;22.92;15.70;;;11.60;99.90;;;;;;5093440;28;20039;-76
2023/10/24 05:53:59;;;;;;;24.27;15.38;;;11.60;99.90;;;;;;5111984;28;20066;-76
2023/10/24 05:56:25;;;;;;;22.38;15.35;;;11.50;99.90;;;;;;5076875;28;20043;-76
2023/10/24 05:58:51;;;;;;;21.88;14.82;;;11.50;99.90;;;;;;5093955;28;20036;-76
2023/10/24 06:01:19;;;;;;;21.13;14.18;;;11.40;99.90;;;;;;5111847;28;20668;-76
2023/10/24 06:03:45;;;;;;;22.70;15.65;;;11.50;99.90;;;;;;5093711;28;20036;-76
2023/10/24 06:06:11;;;;;;;23.98;14.88;;;11.50;99.90;;;;;;5093702;28;20039;-76
2023/10/24 06:08:39;;;;;;;18.65;13.10;;;11.40;99.90;;;;;;5093929;28;20648;-76
2023/10/24 06:11:05;;;;;;;19.52;14.40;;;11.50;99.90;;;;;;5076550;28;20063;-76
2023/10/24 06:13:34;;;;;;;22.13;15.18;;;11.40;99.90;;;;;;5093663;28;20511;-75
2023/10/24 06:16:14;;;;;;;18.63;14.15;;;11.40;99.90;;;;;;5093579;28;20050;-76
2023/10/24 06:18:40;;;;;;;22.05;13.63;;;11.50;99.90;;;;;;5094110;28;20199;-78
2023/10/24 06:21:06;;;;;;;20.52;13.85;;;11.40;99.90;;;;;;5093651;28;20068;-75
2023/10/24 06:23:33;;;;;;;23.10;14.40;;;11.50;99.90;;;;;;5093502;28;20488;-76
2023/10/24 06:25:58;;;;;;;19.77;13.48;;;11.50;99.90;;;;;;5093366;28;20035;-76
2023/10/24 06:28:24;;;;;;;17.17;13.85;;;11.40;99.90;;;;;;5093564;28;20047;-76
2023/10/24 06:30:57;;;;;;;19.50;13.60;;;11.40;99.90;;;;;;5093395;28;20047;-76
2023/10/24 06:33:22;;;;;;;17.87;12.97;;;11.50;99.90;;;;;;5093370;28;20039;-75
2023/10/24 06:35:48;;;;;;;23.35;14.45;;;11.30;99.90;;;;;;5092933;28;20851;-75
2023/10/24 06:38:14;;;;;;;19.05;12.70;;;11.40;99.90;;;;;;5092884;28;20100;-75
2023/10/24 06:40:44;;;;;;;19.38;13.35;;;11.40;99.90;;;;;;5093167;28;20063;-75
2023/10/24 06:43:09;;;;;;;17.92;12.30;;;11.40;99.90;;;;;;5093560;28;20510;-75
2023/10/24 06:45:35;;;;;;;19.17;11.93;;;11.40;99.90;;;;;;5111836;28;20084;-75
2023/10/24 06:48:01;;;;;;;21.45;13.27;;;11.50;99.90;;;;;;5093354;28;20047;-75
2023/10/24 06:50:26;;;;;;;18.15;12.20;;;11.50;99.90;;;;;;5093156;28;20402;-75
2023/10/24 06:52:52;;;;;;;15.88;11.50;;;11.50;99.90;;;;;;5094779;28;20395;-75
2023/10/24 06:55:18;;;;;;;16.08;11.25;;;11.50;99.90;;;;;;5096823;28;20044;-75
2023/10/24 06:57:43;;;;;;;16.10;11.50;;;11.40;99.90;;;;;;5097310;28;20036;-76
2023/10/24 07:00:09;;;;;;;17.35;12.15;;;11.40;99.90;;;;;;5097289;28;20410;-75
2023/10/24 07:02:35;;;;;;;15.38;10.90;;;11.40;99.90;;;;;;5096990;28;20044;-76
2023/10/24 07:05:00;;;;;;;16.33;11.30;;;11.50;99.90;;;;;;5096857;28;20433;-74
2023/10/24 07:07:26;;;;;;;16.13;10.10;;;11.50;99.90;;;;;;5096382;28;20126;-73
2023/10/24 07:09:52;;;;;;;15.05;10.40;;;11.40;99.90;;;;;;5114947;28;20502;-73
2023/10/24 07:12:17;;;;;;;13.23;10.32;;;11.50;99.90;;;;;;5114767;28;20602;-73
2023/10/24 07:14:43;;;;;;;14.48;9.90;;;11.40;99.90;;;;;;5114904;28;20410;-73
2023/10/24 07:17:08;;;;;;;14.57;10.55;;;11.50;99.90;;;;;;5096530;28;20039;-73
2023/10/24 07:19:34;;;;;;;16.50;10.18;;;11.50;99.90;;;;;;5114560;28;20031;-73
2023/10/24 07:22:01;;;;;;;17.83;9.63;;;11.50;99.90;;;;;;5114580;28;20515;-73
2023/10/24 07:24:26;;;;;;;13.30;9.15;;;11.50;99.90;;;;;;5096614;28;20043;-73
2023/10/24 07:26:52;;;;;;;13.38;9.05;;;11.50;99.90;;;;;;5114792;28;20036;-72
2023/10/24 07:29:17;;;;;;;14.95;9.63;;;11.50;99.90;;;;;;5096341;28;20060;-73
2023/10/24 07:31:43;;;;;;;13.10;8.82;;;11.50;99.90;;;;;;5096075;28;20036;-73
2023/10/24 07:34:08;;;;;;;14.43;9.50;;;11.50;99.90;;;;;;5114417;28;20472;-73
2023/10/24 07:36:35;;;;;;;13.68;9.52;;;11.60;99.90;;;;;;5114183;28;20051;-73
2023/10/24 07:39:00;;;;;;;13.38;8.60;;;11.60;99.90;;;;;;5096196;28;20047;-73
2023/10/24 07:41:26;;;;;;;13.55;8.90;;;11.50;99.90;;;;;;5114279;28;20040;-73
2023/10/24 07:43:52;;;;;;;13.05;9.70;;;11.60;99.90;;;;;;5095964;28;20039;-73
2023/10/24 07:46:18;;;;;;;12.18;8.73;;;11.60;99.90;;;;;;5095916;28;20095;-73
2023/10/24 07:48:44;;;;;;;13.75;8.77;;;11.60;99.90;;;;;;5095921;28;20040;-73
2023/10/24 07:51:11;;;;;;;13.90;8.88;;;11.60;99.90;;;;;;5095558;28;20403;-73
2023/10/24 07:53:36;;;;;;;15.38;9.38;;;11.70;99.90;;;;;;5095818;28;20039;-73
2023/10/24 07:56:05;;;;;;;11.55;7.95;;;11.60;99.90;;;;;;5113793;28;20487;-73
2023/10/24 07:58:31;;;;;;;13.02;8.27;;;11.60;99.90;;;;;;5095642;28;20082;-74
2023/10/24 08:00:57;;;;;;;13.70;8.13;;;11.60;99.90;;;;;;5113821;28;20067;-74
2023/10/24 08:03:22;;;;;;;9.30;7.60;;;11.60;99.90;;;;;;5113614;28;20089;-74
2023/10/24 08:05:48;;;;;;;13.10;8.55;;;11.70;99.90;;;;;;5095595;28;20084;-74
2023/10/24 08:08:13;;;;;;;12.13;8.73;;;11.70;99.90;;;;;;5113697;28;20036;-74
2023/10/24 08:10:39;;;;;;;12.63;8.40;;;11.70;99.90;;;;;;5095498;28;20035;-74
2023/10/24 08:13:05;;;;;;;12.88;9.32;;;11.70;99.90;;;;;;5113741;28;20051;-74
2023/10/24 08:15:32;;;;;;;12.20;8.02;;;11.80;99.90;;;;;;5095198;28;20085;-73
2023/10/24 08:17:58;;;;;;;14.57;8.93;;;11.80;99.90;;;;;;5113393;28;20491;-73
2023/10/24 08:20:25;;;;;;;12.00;8.07;;;11.70;99.90;;;;;;5095445;28;20065;-74
2023/10/24 08:22:51;;;;;;;11.85;8.05;;;11.80;99.90;;;;;;5113285;28;20036;-74
2023/10/24 08:25:17;;;;;;;12.90;8.60;;;11.80;99.90;;;;;;5078381;28;20483;-73
2023/10/24 08:27:43;;;;;;;11.10;7.57;;;11.80;99.90;;;;;;5095548;28;20047;-75
2023/10/24 08:30:10;;;;;;;12.52;8.57;;;11.70;99.90;;;;;;5095666;28;20058;-75
2023/10/24 08:32:35;;;;;;;11.65;8.00;;;11.80;99.90;;;;;;5113425;28;20123;-75
2023/10/24 08:35:01;;;;;;;11.77;8.13;;;11.70;99.90;;;;;;5095646;28;20128;-75
2023/10/24 08:37:27;;;;;;;11.57;7.80;;;11.80;99.90;;;;;;5095109;28;20027;-75
2023/10/24 08:39:53;;;;;;;13.57;8.50;;;11.70;99.90;;;;;;5095146;28;20053;-75
2023/10/24 08:42:19;;;;;;;14.70;8.30;;;11.80;99.90;;;;;;5095283;28;20076;-75
2023/10/24 08:44:45;;;;;;;14.40;8.20;;;11.80;99.90;;;;;;5095500;28;20127;-76
2023/10/24 08:47:13;;;;;;;12.15;7.55;;;11.80;99.90;;;;;;5077917;28;20048;-76
2023/10/24 08:49:39;;;;;;;11.57;7.63;;;11.80;99.90;;;;;;5094632;28;20039;-76
2023/10/24 08:52:05;;;;;;;12.80;8.02;;;11.80;99.90;;;;;;5112793;28;20506;-76
2023/10/24 08:54:31;;;;;;;13.45;8.63;;;11.80;99.90;;;;;;5094849;28;20046;-77
2023/10/24 08:57:00;;;;;;;13.60;8.95;;;11.80;99.90;;;;;;5094745;28;20042;-76
2023/10/24 08:59:30;;;;;;;11.73;7.53;;;11.80;99.90;;;;;;5094909;28;20089;-76
2023/10/24 09:01:55;;;;;;;13.10;8.38;;;11.70;99.90;;;;;;5112921;28;20071;-76
2023/10/24 09:04:21;;;;;;;13.05;8.65;;;11.70;99.90;;;;;;5095087;28;20071;-75
2023/10/24 09:06:47;;;;;;;13.15;8.88;;;11.70;99.90;;;;;;5112865;28;20031;-76
2023/10/24 09:09:14;;;;;;;12.93;8.85;;;11.70;99.90;;;;;;5094858;28;20032;-76
2023/10/24 09:11:59;;;;;;;14.30;9.05;;;11.80;99.90;;;;;;5077697;28;20084;-75
2023/10/24 09:14:28;;;;;;;16.27;9.32;;;11.70;99.90;;;;;;5094911;28;20039;-75
2023/10/24 09:16:55;;;;;;;13.63;8.43;;;11.70;99.90;;;;;;5094468;28;20043;-75
2023/10/24 09:19:22;;;;;;;18.38;8.57;;;11.80;99.90;;;;;;5113081;28;20078;-75
2023/10/24 09:21:51;;;;;;;14.43;9.18;;;11.80;99.90;;;;;;5095044;28;20042;-75
2023/10/24 09:24:17;;;;;;;12.55;8.23;;;11.80;99.90;;;;;;5094704;28;20048;-75
2023/10/24 09:26:54;;;;;;;16.15;9.32;;;11.80;99.90;;;;;;5113115;28;20036;-75
2023/10/24 09:29:20;;;;;;;13.27;8.60;;;11.80;99.90;;;;;;5095107;28;20043;-75
2023/10/24 09:31:49;;;;;;;16.92;9.35;;;11.80;99.90;;;;;;5093977;28;20110;-75
2023/10/24 09:34:18;;;;;;;13.93;9.27;;;11.80;99.90;;;;;;5112267;28;20515;-75
2023/10/24 09:36:45;;;;;;;15.70;8.77;;;11.80;99.90;;;;;;5112230;28;20040;-75
2023/10/24 09:39:12;;;;;;;14.10;9.20;;;11.80;99.90;;;;;;5094536;28;20035;-75
2023/10/24 09:41:45;;;;;;;16.83;9.13;;;11.80;99.90;;;;;;5112770;28;20031;-75
2023/10/24 09:44:11;;;;;;;14.68;9.07;;;11.80;99.90;;;;;;5094022;28;20411;-75
2023/10/24 09:46:38;;;;;;;14.15;9.52;;;11.80;99.90;;;;;;5093756;28;20028;-76
2023/10/24 09:49:07;;;;;;;16.90;8.05;;;11.80;99.90;;;;;;5095073;28;20191;-75
2023/10/24 09:51:36;;;;;;;13.57;9.20;;;12.00;99.90;;;;;;5076464;28;20047;-75
2023/10/24 09:54:05;;;;;;;17.83;8.70;;;12.00;99.90;;;;;;5112328;28;20040;-75
2023/10/24 09:56:32;;;;;;;17.25;10.02;;;12.20;99.90;;;;;;5095082;28;20075;-75
2023/10/24 09:58:58;;;;;;;16.25;9.55;;;12.30;99.90;;;;;;5113565;28;20045;-75
2023/10/24 10:01:28;;;;;;;12.23;8.75;;;12.30;99.90;;;;;;5093957;28;20050;-74
2023/10/24 10:04:00;;;;;;;12.73;9.60;;;12.40;99.90;;;;;;5093654;28;20039;-74
2023/10/24 10:06:27;;;;;;;11.80;8.63;;;12.50;99.90;;;;;;5092635;28;20067;-74
2023/10/24 10:08:57;;;;;;;12.95;8.45;;;12.50;99.90;;;;;;5093146;28;20110;-74
2023/10/24 10:11:27;;;;;;;10.98;8.18;;;12.50;99.90;;;;;;5093132;28;20031;-74
2023/10/24 10:14:08;;;;;;;11.27;7.70;;;12.40;99.90;;;;;;5089487;28;20039;-74
2023/10/24 10:16:53;;;;;;;12.52;8.52;;;12.50;99.90;;;;;;5110136;28;20084;-74
2023/10/24 10:19:32;;;;;;;13.77;7.88;;;12.50;99.90;;;;;;5086288;28;20043;-74
2023/10/24 10:22:37;;;;;;;10.73;8.00;;;12.60;99.90;;;;;;5103979;28;20510;-74
2023/10/24 10:25:18;;;;;;;11.43;7.57;;;12.60;99.90;;;;;;5086860;28;20039;-75
2023/10/24 10:28:21;;;;;;;10.25;7.13;;;12.60;99.90;;;;;;5093565;28;20048;-74
2023/10/24 10:31:23;;;;;;;10.73;7.28;;;12.60;99.90;;;;;;5116226;28;20047;-75
2023/10/24 10:33:49;;;;;;;10.07;7.47;;;12.50;99.90;;;;;;5098223;28;20521;-75
2023/10/24 10:36:15;;;;;;;12.55;7.85;;;12.50;99.90;;;;;;5098046;28;20606;-74
2023/10/24 10:38:45;;;;;;;9.27;6.57;;;12.60;99.90;;;;;;5097669;28;20035;-74
2023/10/24 10:41:20;;;;;;;10.73;7.93;;;12.60;99.90;;;;;;5097686;28;20050;-74
2023/10/24 10:43:46;;;;;;;11.52;8.25;;;12.60;99.90;;;;;;5097884;28;20043;-74
2023/10/24 10:46:16;;;;;;;9.82;7.28;;;12.50;99.90;;;;;;5115119;28;20051;-74
2023/10/24 10:48:42;;;;;;;9.82;7.50;;;12.60;99.90;;;;;;5072105;28;20042;-74
2023/10/24 10:51:11;;;;;;;10.57;7.05;;;12.60;99.90;;;;;;5079641;28;20114;-74
2023/10/24 10:53:47;;;;;;;9.95;6.95;;;12.60;99.90;;;;;;5097581;28;20035;-75
2023/10/24 10:56:23;;;;;;;11.88;7.93;;;12.70;99.90;;;;;;5097547;28;20450;-77
2023/10/24 10:58:51;;;;;;;10.88;6.90;;;12.70;99.90;;;;;;5080436;28;20120;-75
2023/10/24 11:01:33;;;;;;;12.25;8.10;;;12.70;99.90;;;;;;5095154;28;20048;-74
2023/10/24 11:03:59;;;;;;;10.23;7.15;;;12.70;99.90;;;;;;5095166;28;20050;-73
2023/10/24 11:06:27;;;;;;;9.73;7.57;;;12.70;99.90;;;;;;5076841;28;20391;-74
2023/10/24 11:09:10;;;;;;;11.20;7.05;;;12.70;99.90;;;;;;5094534;28;20483;-73
2023/10/24 11:11:39;;;;;;;9.98;7.13;;;12.70;99.90;;;;;;5094960;28;20032;-73
2023/10/24 11:14:17;;;;;;;11.43;7.22;;;12.70;99.90;;;;;;5076823;28;20373;-73
2023/10/24 11:16:44;;;;;;;10.45;7.38;;;12.70;99.90;;;;;;5076444;28;20066;-73
2023/10/24 11:19:18;;;;;;;11.50;7.03;;;12.70;99.90;;;;;;5087841;28;20422;-74
2023/10/24 11:21:45;;;;;;;11.15;7.68;;;12.80;99.90;;;;;;5097453;28;20058;-74
2023/10/24 11:24:17;;;;;;;10.73;7.25;;;12.80;99.90;;;;;;5095989;28;20048;-73
2023/10/24 11:26:44;;;;;;;12.10;8.05;;;12.70;99.90;;;;;;5079711;28;20028;-74
2023/10/24 11:29:11;;;;;;;10.05;7.13;;;12.70;99.90;;;;;;5096971;28;20028;-74
2023/10/24 11:31:37;;;;;;;10.27;7.72;;;12.70;99.90;;;;;;5115592;28;20046;-74
2023/10/24 11:34:03;;;;;;;10.30;7.55;;;12.70;99.90;;;;;;5111294;28;20035;-74
2023/10/24 11:36:29;;;;;;;10.93;6.78;;;12.70;99.90;;;;;;5109608;28;20048;-74
2023/10/24 11:38:58;;;;;;;10.27;7.20;;;12.70;99.90;;;;;;5093366;28;20058;-75
2023/10/24 11:41:25;;;;;;;10.00;6.78;;;12.70;99.90;;;;;;5096049;28;20069;-75
2023/10/24 11:43:51;;;;;;;14.18;8.73;;;12.60;99.90;;;;;;5075979;28;20075;-74
2023/10/24 11:46:17;;;;;;;12.70;7.93;;;12.40;99.90;;;;;;5078538;28;20086;-74
2023/10/24 11:48:43;;;;;;;10.18;6.68;;;12.50;99.90;;;;;;5089776;28;20047;-74
2023/10/24 11:51:08;;;;;;;10.20;6.80;;;12.40;99.90;;;;;;5116695;28;20047;-74
2023/10/24 11:53:34;;;;;;;10.73;7.30;;;12.40;99.90;;;;;;5098537;28;20176;-74
2023/10/24 11:56:00;;;;;;;10.82;7.38;;;12.40;99.90;;;;;;5081437;28;20043;-75
2023/10/24 11:58:33;;;;;;;11.30;7.55;;;12.40;99.90;;;;;;5098609;28;20050;-76
2023/10/24 12:01:00;;;;;;;10.13;7.57;;;12.30;99.90;;;;;;5115491;28;20036;-75
2023/10/24 12:03:46;;;;;;;11.18;8.07;;;12.30;99.90;;;;;;5097510;28;20043;-75
2023/10/24 12:06:12;;;;;;;11.63;7.00;;;12.30;99.90;;;;;;5096732;28;20044;-75
2023/10/24 12:08:38;;;;;;;9.57;6.40;;;12.30;99.90;;;;;;5091940;28;20043;-74
2023/10/24 12:11:04;;;;;;;10.27;7.45;;;12.30;99.90;;;;;;5075418;28;20047;-74
2023/10/24 12:13:29;;;;;;;10.38;7.07;;;12.30;99.90;;;;;;5093866;28;20036;-75
2023/10/24 12:15:56;;;;;;;9.50;7.07;;;12.20;99.90;;;;;;5093865;28;20380;-74
2023/10/24 12:18:22;;;;;;;11.20;7.65;;;12.30;99.90;;;;;;5075323;28;20051;-74
2023/10/24 12:20:48;;;;;;;11.32;7.53;;;12.20;99.90;;;;;;5093744;28;20048;-75
2023/10/24 12:23:16;;;;;;;12.40;8.23;;;12.30;99.90;;;;;;5075558;28;20499;-74
2023/10/24 12:25:43;;;;;;;11.25;7.53;;;12.30;99.90;;;;;;5093585;28;20071;-74
2023/10/24 12:28:08;;;;;;;11.32;8.55;;;12.30;99.90;;;;;;5093440;28;20059;-74
2023/10/24 12:30:34;;;;;;;12.25;8.52;;;12.40;99.90;;;;;;5083663;28;20455;-74